Jump to content


AMERICAN EAGLE FLIGHT MQ2276 FLOWN ON 08-29-2017 BY CAPTAIN JIM BOERMAN

Pilot StatsCaptain Jim Boerman (LDP136) • 4,648.3 total hours • 1,417 total flights [View Logbook]
FLIGHT DETAILS
StatusReceived and approved on 2017-08-29 at 10:08:09
Origin AirportKlamath Falls (KLMT) • Klamath Falls, Oregon, United States (4,094 feet MSL)
Filed Flight PlanKLMT JUNEJ Q7 AVE J1 DERBB J7 REYES J1 FIM KLAX
Destination AirportLos Angeles Intl (KLAX) • Los Angeles, California, United States (126 feet MSL)
Alternate AirportOntario Intl (KONT) • Ontario, California, United States (944 feet MSL)
AirlineAmerican Eagle
AircraftEmbraer ERJ-135 (ER3 / ERJ-135)
FS Aircraft UsedPIC ERJ135LR - Eagle 2013 - No Yoke
Cruising AltitudeFL330
Distance Flown518 nautical miles
Passengers Onboard27 passengers (72.97% full)
DEPARTURE DETAILS
Time Out05:40:17
Taxi Data39,255 lbs total with 6,991 lbs of fuel onboard
Takeoff Data05:52:25 (12 minutes after leaving gate/ramp) • 39,003 lbs total • 10° pitch at 129 knots
Departure METARKLMT 291053Z AUTO 14004KT 4SM HZ FU OVC033 12/09 A3009 RMK AO2 SLP141 T01170089
ARRIVAL DETAILS
Landing Data07:23:34 • 35,666 lbs total • 6° pitch doing 113 knots at a rate of -458.29 feet/minute with 3,260 lbs of fuel onboard
Time In07:30:30 (7 minutes after landing)
Ramp Weight35,524 lbs total
Total Fuel Used3,731 lbs
Total Block Time01:50:05 (1.8 hours) while 19 minutes were spent on the ground
Arrival METARKLAX 291353Z 00000KT 6SM BR FEW005 FEW100 SCT150 21/19 A2980 RMK AO2 SLP089 T02060189
MISCELLANEOUS DETAILS
LiveDISPATCH Version4.8.3.1
FS Version
FSUIPC Version4.93
OS VersionWindows 7 32-bit
Screen Resolution1920 x 1080
Pilot's CommentsNo Comments Reported
FLIGHT MAP